createdAt,value
2018-09-09T00:01:03.583Z,81.24
2018-09-09T00:03:31.044Z,80.91
2018-09-09T00:05:58.011Z,81.29
2018-09-09T00:08:25.475Z,82.30
2018-09-09T00:10:53.690Z,82.21
2018-09-09T00:13:20.547Z,81.65
2018-09-09T00:15:47.472Z,80.89
2018-09-09T00:18:14.436Z,80.98
2018-09-09T00:20:41.443Z,81.43
2018-09-09T00:23:09.370Z,83.38
2018-09-09T00:25:37.355Z,82.89
2018-09-09T00:28:05.094Z,83.28
2018-09-09T00:30:32.104Z,82.28
2018-09-09T00:32:59.089Z,82.30
2018-09-09T00:35:26.016Z,82.26
2018-09-09T00:37:52.959Z,82.21
2018-09-09T00:40:20.499Z,82.15
2018-09-09T00:42:47.456Z,82.50
2018-09-09T00:45:14.455Z,82.54
2018-09-09T00:47:41.394Z,81.54
2018-09-09T00:50:13.979Z,82.04
2018-09-09T00:52:46.747Z,80.87
2018-09-09T00:55:13.743Z,81.17
2018-09-09T00:57:40.770Z,81.59
2018-09-09T01:00:08.568Z,80.98
2018-09-09T01:02:35.512Z,81.41
2018-09-09T01:05:02.500Z,81.69
2018-09-09T01:07:29.491Z,81.00
2018-09-09T01:09:57.143Z,80.44
2018-09-09T01:12:24.051Z,80.68
2018-09-09T01:14:51.038Z,80.06
2018-09-09T01:17:18.007Z,80.40
2018-09-09T01:19:44.959Z,80.20
2018-09-09T01:22:11.921Z,80.15
2018-09-09T01:24:38.880Z,80.05
2018-09-09T01:27:05.936Z,81.08
2018-09-09T01:29:32.883Z,82.08
2018-09-09T01:31:59.839Z,82.22
2018-09-09T01:34:26.762Z,81.87
2018-09-09T01:36:53.752Z,82.00
2018-09-09T01:39:20.640Z,81.60
2018-09-09T01:41:47.571Z,81.93
2018-09-09T01:44:14.531Z,82.36
2018-09-09T01:46:41.479Z,82.07
2018-09-09T01:49:08.447Z,82.17
2018-09-09T01:51:35.398Z,82.08
2018-09-09T01:54:02.385Z,82.75
2018-09-09T01:56:29.314Z,82.50
2018-09-09T01:58:56.367Z,82.46
2018-09-09T02:01:23.444Z,81.23
2018-09-09T02:03:51.410Z,80.55
2018-09-09T02:06:18.356Z,81.00
2018-09-09T02:08:45.334Z,83.12
2018-09-09T02:11:12.301Z,83.68
2018-09-09T02:13:39.247Z,83.46
2018-09-09T02:16:06.206Z,85.75
2018-09-09T02:18:33.143Z,85.34
2018-09-09T02:21:01.188Z,85.53
2018-09-09T02:23:28.098Z,84.23
2018-09-09T02:25:55.142Z,83.37
2018-09-09T02:28:22.023Z,83.32
2018-09-09T02:30:48.953Z,83.25
2018-09-09T02:33:16.644Z,81.90
2018-09-09T02:35:43.628Z,82.64
2018-09-09T02:38:11.524Z,81.85
2018-09-09T02:40:38.497Z,82.20
2018-09-09T02:43:05.544Z,82.69
2018-09-09T02:45:32.460Z,83.23
2018-09-09T02:47:59.422Z,83.85
2018-09-09T02:50:26.280Z,84.10
2018-09-09T02:52:53.215Z,83.97
2018-09-09T02:55:20.187Z,83.29
2018-09-09T02:57:47.131Z,83.72
2018-09-09T03:00:14.096Z,83.16
2018-09-09T03:02:41.060Z,81.73
2018-09-09T03:05:08.010Z,82.37
2018-09-09T03:07:34.976Z,82.33
2018-09-09T03:10:01.948Z,82.11
2018-09-09T03:12:28.896Z,80.10
2018-09-09T03:14:55.843Z,80.77
2018-09-09T03:17:22.783Z,80.91
2018-09-09T03:19:49.719Z,80.87
2018-09-09T03:22:16.707Z,81.54
2018-09-09T03:24:44.209Z,81.12
2018-09-09T03:27:11.149Z,82.44
2018-09-09T03:29:38.099Z,83.76
2018-09-09T03:32:05.136Z,84.37
2018-09-09T03:34:32.270Z,85.23
2018-09-09T03:36:59.187Z,86.68
2018-09-09T03:39:26.127Z,85.79
2018-09-09T03:41:53.091Z,84.34
2018-09-09T03:44:20.063Z,84.75
2018-09-09T03:46:48.027Z,83.67
2018-09-09T03:49:15.004Z,84.07
2018-09-09T03:51:41.965Z,83.03
2018-09-09T03:54:08.892Z,82.27
2018-09-09T03:56:35.867Z,83.74
2018-09-09T03:59:02.819Z,82.70
2018-09-09T04:01:29.767Z,83.94
2018-09-09T04:03:56.754Z,83.34
2018-09-09T04:06:24.192Z,83.27
2018-09-09T04:08:51.156Z,83.23
2018-09-09T04:11:18.171Z,83.27
2018-09-09T04:13:45.075Z,81.65
2018-09-09T04:16:12.643Z,80.26
2018-09-09T04:18:40.304Z,79.08
2018-09-09T04:21:07.476Z,81.34
2018-09-09T04:23:34.439Z,82.64
2018-09-09T04:26:01.400Z,82.66
2018-09-09T04:28:28.330Z,81.79
2018-09-09T04:30:55.359Z,82.20
2018-09-09T04:33:22.374Z,82.61
2018-09-09T04:35:49.353Z,83.09
2018-09-09T04:38:16.366Z,83.32
2018-09-09T04:40:43.343Z,82.81
2018-09-09T04:43:10.311Z,83.20
2018-09-09T04:45:37.224Z,83.52
2018-09-09T04:48:04.223Z,81.96
2018-09-09T04:50:33.145Z,82.68
2018-09-09T04:53:00.049Z,82.79
2018-09-09T04:55:27.087Z,83.33
2018-09-09T04:57:54.000Z,82.80
2018-09-09T05:00:21.976Z,79.99
2018-09-09T05:02:48.935Z,82.09
2018-09-09T05:05:15.887Z,83.61
2018-09-09T05:07:43.074Z,84.91
2018-09-09T05:10:10.005Z,83.00
2018-09-09T05:12:36.966Z,83.75
2018-09-09T05:15:04.968Z,83.24
2018-09-09T05:17:32.006Z,82.29
2018-09-09T05:19:58.922Z,82.23
2018-09-09T05:22:25.955Z,83.24
2018-09-09T05:24:53.713Z,83.24
2018-09-09T05:27:20.651Z,83.22
2018-09-09T05:29:47.586Z,83.35
2018-09-09T05:32:14.671Z,86.24
2018-09-09T05:34:41.858Z,84.88
2018-09-09T05:37:09.540Z,83.61
2018-09-09T05:39:37.070Z,83.53
2018-09-09T05:42:04.059Z,82.51
2018-09-09T05:44:31.488Z,81.91
2018-09-09T05:46:58.467Z,80.95
2018-09-09T05:49:25.421Z,79.68
2018-09-09T05:51:52.377Z,80.34
2018-09-09T05:54:19.343Z,79.91
2018-09-09T05:56:46.295Z,79.68
2018-09-09T05:59:13.247Z,79.78
2018-09-09T06:01:40.176Z,80.27
2018-09-09T06:04:07.132Z,80.24
2018-09-09T06:06:34.132Z,80.71
2018-09-09T06:09:06.596Z,79.83
2018-09-09T06:11:34.175Z,79.44
2018-09-09T06:14:01.107Z,79.06
2018-09-09T06:16:28.095Z,79.70
2018-09-09T06:18:55.059Z,78.96
2018-09-09T06:21:21.978Z,79.26
2018-09-09T06:23:49.751Z,78.71
2018-09-09T06:26:17.227Z,78.74
2018-09-09T06:28:44.213Z,78.00
2018-09-09T06:31:11.195Z,77.63
2018-09-09T06:33:38.168Z,77.04
2018-09-09T06:36:05.801Z,77.47
2018-09-09T06:38:32.771Z,77.19
2018-09-09T06:40:59.720Z,76.75
2018-09-09T06:43:26.679Z,77.19
2018-09-09T06:45:53.603Z,75.95
2018-09-09T06:48:21.318Z,75.73
2018-09-09T06:50:48.238Z,75.60
2018-09-09T06:53:15.735Z,74.44
2018-09-09T06:55:42.891Z,74.40
2018-09-09T06:58:10.889Z,74.15
2018-09-09T07:00:37.932Z,74.23
2018-09-09T07:03:05.135Z,75.07
2018-09-09T07:05:32.055Z,74.77
2018-09-09T07:07:59.027Z,75.18
2018-09-09T07:10:25.979Z,75.57
2018-09-09T07:12:52.931Z,74.95
2018-09-09T07:15:20.821Z,75.11
2018-09-09T07:17:47.751Z,75.73
2018-09-09T07:20:14.722Z,75.82
2018-09-09T07:22:41.757Z,74.62
2018-09-09T07:25:08.579Z,75.02
2018-09-09T07:27:35.500Z,74.28
2018-09-09T07:30:02.464Z,73.89
2018-09-09T07:32:29.407Z,74.10
2018-09-09T07:34:56.395Z,74.60
2018-09-09T07:37:23.407Z,74.30
2018-09-09T07:39:50.263Z,74.44
2018-09-09T07:42:17.247Z,72.88
2018-09-09T07:44:44.243Z,74.06
2018-09-09T07:47:11.159Z,74.32
2018-09-09T07:49:38.140Z,72.50
2018-09-09T07:52:05.232Z,72.46
2018-09-09T07:54:32.135Z,71.62
2018-09-09T07:56:59.840Z,69.55
2018-09-09T07:59:27.401Z,70.22
2018-09-09T08:01:54.313Z,70.00
2018-09-09T08:04:21.299Z,70.34
2018-09-09T08:06:48.289Z,69.10
2018-09-09T08:09:15.231Z,68.00
2018-09-09T08:11:42.127Z,67.66
2018-09-09T08:14:09.974Z,68.44
2018-09-09T08:16:36.922Z,67.53
2018-09-09T08:19:04.200Z,65.81
2018-09-09T08:21:31.715Z,65.34
2018-09-09T08:23:58.884Z,62.63
2018-09-09T08:26:25.873Z,63.53
2018-09-09T08:28:52.864Z,61.71
2018-09-09T08:31:20.051Z,63.83
2018-09-09T08:33:47.323Z,64.03
2018-09-09T08:36:14.282Z,63.25
2018-09-09T08:38:41.283Z,62.77
2018-09-09T08:41:08.199Z,63.52
2018-09-09T08:43:35.463Z,62.34
2018-09-09T08:46:03.649Z,64.01
2018-09-09T08:48:30.675Z,63.60
2018-09-09T08:50:57.638Z,64.09
2018-09-09T08:53:24.669Z,63.06
2018-09-09T08:55:51.539Z,62.11
2018-09-09T08:58:18.644Z,63.00
2018-09-09T09:00:45.615Z,61.40
2018-09-09T09:03:12.535Z,61.91
2018-09-09T09:05:39.519Z,61.06
2018-09-09T09:08:06.491Z,60.62
2018-09-09T09:10:33.451Z,58.15
2018-09-09T09:13:00.452Z,57.88
2018-09-09T09:15:27.350Z,59.56
2018-09-09T09:17:54.367Z,59.74
2018-09-09T09:20:21.272Z,57.25
2018-09-09T09:22:50.283Z,56.60
2018-09-09T09:25:17.246Z,55.57
2018-09-09T09:27:44.219Z,54.84
2018-09-09T09:30:11.172Z,53.27
2018-09-09T09:32:44.451Z,51.66
2018-09-09T09:35:12.431Z,51.71
2018-09-09T09:37:39.384Z,49.09
2018-09-09T09:40:06.355Z,49.40
2018-09-09T09:42:33.299Z,47.60
2018-09-09T09:45:00.287Z,47.93
2018-09-09T09:47:27.246Z,47.34
2018-09-09T09:49:54.164Z,46.41
2018-09-09T09:52:21.139Z,45.75
2018-09-09T09:54:48.096Z,47.28
2018-09-09T09:57:15.051Z,48.34
2018-09-09T09:59:42.042Z,47.08
2018-09-09T10:02:08.971Z,45.67
2018-09-09T10:04:35.936Z,46.44
2018-09-09T10:07:02.888Z,46.82
2018-09-09T10:09:29.838Z,46.38
2018-09-09T10:11:56.860Z,44.26
2018-09-09T10:14:23.915Z,44.30
2018-09-09T10:16:50.916Z,43.37
2018-09-09T10:19:18.073Z,45.07
2018-09-09T10:21:45.035Z,43.57
2018-09-09T10:24:12.013Z,41.61
2018-09-09T10:26:38.940Z,42.21
2018-09-09T10:29:05.899Z,42.13
2018-09-09T10:31:32.763Z,42.36
2018-09-09T10:33:59.704Z,42.21
2018-09-09T10:36:26.668Z,42.95
2018-09-09T10:38:53.739Z,42.93
2018-09-09T10:41:20.683Z,42.40
2018-09-09T10:43:47.675Z,40.92
2018-09-09T10:46:15.120Z,42.01
2018-09-09T10:48:41.972Z,41.48
2018-09-09T10:51:08.840Z,41.80
2018-09-09T10:53:35.795Z,41.10
2018-09-09T10:56:03.460Z,42.18
2018-09-09T10:58:30.514Z,41.84
2018-09-09T11:00:57.471Z,41.99
2018-09-09T11:03:24.411Z,40.85
2018-09-09T11:05:51.383Z,39.77
2018-09-09T11:08:18.343Z,42.55
2018-09-09T11:10:45.779Z,39.76
2018-09-09T11:13:12.741Z,41.09
2018-09-09T11:15:39.784Z,41.50
2018-09-09T11:18:06.714Z,43.18
2018-09-09T11:20:33.647Z,43.60
2018-09-09T11:23:00.640Z,38.67
2018-09-09T11:25:27.560Z,39.86
2018-09-09T11:27:54.541Z,38.82
2018-09-09T11:30:21.475Z,40.60
2018-09-09T11:32:48.484Z,41.94
2018-09-09T11:35:15.400Z,41.08
2018-09-09T11:37:42.375Z,40.09
2018-09-09T11:40:09.315Z,40.54
2018-09-09T11:42:36.291Z,38.69
2018-09-09T11:45:03.271Z,38.24
2018-09-09T11:47:30.202Z,37.27
2018-09-09T11:49:57.131Z,38.46
2018-09-09T11:52:24.092Z,37.91
2018-09-09T11:54:51.043Z,38.48
2018-09-09T11:57:18.007Z,38.16
2018-09-09T11:59:44.962Z,36.92
2018-09-09T12:02:11.930Z,37.80
2018-09-09T12:04:38.878Z,37.19
2018-09-09T12:07:05.844Z,37.52
2018-09-09T12:09:32.799Z,37.73
2018-09-09T12:11:59.751Z,38.14
2018-09-09T12:14:26.703Z,36.51
2018-09-09T12:16:53.772Z,35.66
2018-09-09T12:19:20.754Z,36.17
2018-09-09T12:21:47.691Z,37.55
2018-09-09T12:24:14.671Z,36.68
2018-09-09T12:26:41.695Z,36.34
2018-09-09T12:29:08.700Z,36.13
2018-09-09T12:31:35.615Z,35.19
2018-09-09T12:34:02.583Z,34.29
2018-09-09T12:36:30.457Z,36.43
2018-09-09T12:38:57.415Z,36.70
2018-09-09T12:41:24.360Z,36.35
2018-09-09T12:43:57.002Z,36.55
2018-09-09T12:46:29.528Z,36.03
2018-09-09T12:49:00.001Z,35.24
2018-09-09T12:51:26.949Z,35.16
2018-09-09T12:53:53.916Z,37.22
2018-09-09T12:56:20.844Z,37.15
2018-09-09T12:58:47.827Z,36.68
2018-09-09T13:01:14.767Z,35.30
2018-09-09T13:03:41.782Z,37.48
2018-09-09T13:06:08.688Z,36.95
2018-09-09T13:08:35.644Z,39.26
2018-09-09T13:11:02.606Z,35.81
2018-09-09T13:13:29.581Z,37.27
2018-09-09T13:15:56.522Z,35.38
2018-09-09T13:18:23.478Z,34.67
2018-09-09T13:20:50.439Z,35.62
2018-09-09T13:23:17.390Z,35.41
2018-09-09T13:25:44.345Z,35.01
2018-09-09T13:28:11.304Z,36.05
2018-09-09T13:30:38.272Z,35.51
2018-09-09T13:33:06.244Z,35.70
2018-09-09T13:35:33.211Z,34.49
2018-09-09T13:38:00.189Z,34.92
2018-09-09T13:40:27.091Z,35.02
2018-09-09T13:42:54.110Z,34.42
2018-09-09T13:45:21.027Z,33.58
2018-09-09T13:47:47.991Z,36.21
2018-09-09T13:50:14.947Z,35.57
2018-09-09T13:52:41.888Z,36.81
2018-09-09T13:55:08.863Z,36.06
2018-09-09T13:57:36.059Z,36.31
2018-09-09T14:00:02.999Z,34.64
2018-09-09T14:02:29.946Z,35.80
2018-09-09T14:04:56.895Z,34.02
2018-09-09T14:07:23.863Z,34.72
2018-09-09T14:09:50.808Z,36.38
2018-09-09T14:12:17.768Z,36.93
2018-09-09T14:14:44.727Z,35.48
2018-09-09T14:17:11.687Z,36.13
2018-09-09T14:19:38.639Z,34.37
2018-09-09T14:22:05.626Z,33.86
2018-09-09T14:24:32.608Z,33.30
2018-09-09T14:26:59.527Z,33.73
2018-09-09T14:29:26.618Z,33.44
2018-09-09T14:31:53.433Z,32.47
2018-09-09T14:34:20.403Z,34.37
2018-09-09T14:36:47.354Z,33.96
2018-09-09T14:39:14.295Z,33.59
2018-09-09T14:41:41.266Z,33.81
2018-09-09T14:44:08.223Z,34.05
2018-09-09T14:46:35.159Z,35.06
2018-09-09T14:49:02.163Z,32.97
2018-09-09T14:51:29.127Z,33.66
2018-09-09T14:53:56.255Z,33.04
2018-09-09T14:56:23.203Z,34.64
2018-09-09T14:58:50.364Z,34.27
2018-09-09T15:01:17.344Z,34.17
2018-09-09T15:03:44.295Z,32.42
2018-09-09T15:06:11.264Z,33.90
2018-09-09T15:08:39.279Z,33.61
2018-09-09T15:11:06.192Z,33.50
2018-09-09T15:13:35.035Z,34.84
2018-09-09T15:16:01.939Z,35.62
2018-09-09T15:18:28.919Z,34.93
2018-09-09T15:20:55.909Z,33.38
2018-09-09T15:23:22.819Z,34.61
2018-09-09T15:25:49.798Z,34.20
2018-09-09T15:28:16.795Z,34.93
2018-09-09T15:30:43.783Z,33.36
2018-09-09T15:33:10.788Z,34.19
2018-09-09T15:35:37.732Z,33.55
2018-09-09T15:38:05.716Z,33.89
2018-09-09T15:40:32.659Z,32.78
2018-09-09T15:42:59.606Z,34.31
2018-09-09T15:45:26.590Z,35.07
2018-09-09T15:47:53.496Z,33.30
2018-09-09T15:50:20.382Z,33.52
2018-09-09T15:52:47.358Z,35.25
2018-09-09T15:55:14.304Z,34.87
2018-09-09T15:57:41.269Z,34.51
2018-09-09T16:00:08.224Z,33.05
2018-09-09T16:02:35.239Z,33.68
2018-09-09T16:05:02.109Z,34.11
2018-09-09T16:07:29.101Z,34.03
2018-09-09T16:09:56.032Z,36.30
2018-09-09T16:12:22.963Z,33.68
2018-09-09T16:14:50.663Z,33.45
2018-09-09T16:17:18.342Z,34.05
2018-09-09T16:19:45.295Z,36.04
2018-09-09T16:22:12.277Z,34.83
2018-09-09T16:24:39.208Z,34.24
2018-09-09T16:27:06.160Z,35.11
2018-09-09T16:29:33.111Z,35.59
2018-09-09T16:32:00.244Z,36.05
2018-09-09T16:34:28.260Z,37.15
2018-09-09T16:36:55.244Z,35.24
2018-09-09T16:39:23.079Z,34.67
2018-09-09T16:41:50.074Z,35.25
2018-09-09T16:44:17.012Z,37.44
2018-09-09T16:46:44.027Z,36.83
2018-09-09T16:49:10.931Z,36.55
2018-09-09T16:51:37.880Z,37.89
2018-09-09T16:54:04.836Z,37.15
2018-09-09T16:56:31.791Z,37.65
2018-09-09T16:58:58.764Z,37.92
2018-09-09T17:01:25.717Z,37.58
2018-09-09T17:03:52.688Z,37.53
2018-09-09T17:06:19.623Z,38.21
2018-09-09T17:08:46.708Z,39.82
2018-09-09T17:11:13.652Z,41.78
2018-09-09T17:13:40.607Z,42.67
2018-09-09T17:16:07.555Z,44.14
2018-09-09T17:18:34.528Z,44.00
2018-09-09T17:21:01.490Z,43.40
2018-09-09T17:23:28.537Z,44.52
2018-09-09T17:25:55.512Z,45.46
2018-09-09T17:28:22.552Z,44.09
2018-09-09T17:30:49.515Z,42.37
2018-09-09T17:33:16.488Z,43.36
2018-09-09T17:35:43.444Z,43.83
2018-09-09T17:38:10.372Z,45.13
2018-09-09T17:40:37.339Z,47.27
2018-09-09T17:43:04.279Z,47.73
2018-09-09T17:45:31.255Z,48.73
2018-09-09T17:47:58.417Z,49.94
2018-09-09T17:50:25.404Z,51.35
2018-09-09T17:52:52.458Z,54.81
2018-09-09T17:55:19.451Z,54.95
2018-09-09T17:57:46.495Z,54.74
2018-09-09T18:00:13.567Z,55.06
2018-09-09T18:02:40.575Z,56.73
2018-09-09T18:05:07.888Z,58.29
2018-09-09T18:07:34.832Z,58.44
2018-09-09T18:10:01.730Z,57.58
2018-09-09T18:12:29.223Z,56.72
2018-09-09T18:14:56.185Z,56.35
2018-09-09T18:17:23.161Z,57.06
2018-09-09T18:19:50.101Z,60.04
2018-09-09T18:22:17.084Z,57.84
2018-09-09T18:24:44.043Z,58.53
2018-09-09T18:27:10.964Z,56.49
2018-09-09T18:29:37.941Z,60.63
2018-09-09T18:32:04.922Z,60.97
2018-09-09T18:34:31.923Z,61.16
2018-09-09T18:36:58.786Z,61.26
2018-09-09T18:39:25.746Z,61.23
2018-09-09T18:41:52.711Z,58.76
2018-09-09T18:44:19.684Z,58.35
2018-09-09T18:46:46.621Z,56.57
2018-09-09T18:49:13.539Z,55.89
2018-09-09T18:51:40.532Z,59.77
2018-09-09T18:54:07.512Z,59.86
2018-09-09T18:56:34.478Z,59.17
2018-09-09T18:59:01.649Z,59.69
2018-09-09T19:01:28.640Z,59.62
2018-09-09T19:03:55.629Z,62.07
2018-09-09T19:06:22.717Z,62.22
2018-09-09T19:08:49.564Z,60.00
2018-09-09T19:11:16.528Z,61.00
2018-09-09T19:13:43.439Z,61.71
2018-09-09T19:16:10.411Z,60.79
2018-09-09T19:18:37.380Z,61.53
2018-09-09T19:21:04.333Z,60.11
2018-09-09T19:23:31.272Z,59.82
2018-09-09T19:25:58.246Z,59.72
2018-09-09T19:28:25.816Z,61.31
2018-09-09T19:30:52.810Z,60.84
2018-09-09T19:33:19.847Z,61.82
2018-09-09T19:35:46.804Z,62.66
2018-09-09T19:38:13.755Z,63.59
2018-09-09T19:40:40.730Z,63.78
2018-09-09T19:43:08.403Z,63.58
2018-09-09T19:45:35.316Z,63.39
2018-09-09T19:48:02.319Z,65.35
2018-09-09T19:50:29.263Z,65.56
2018-09-09T19:52:57.245Z,64.60
2018-09-09T19:55:25.220Z,64.62
2018-09-09T19:57:53.162Z,65.55
2018-09-09T20:00:21.612Z,66.80
2018-09-09T20:02:48.634Z,67.29
2018-09-09T20:05:15.605Z,67.44
2018-09-09T20:07:42.559Z,67.80
2018-09-09T20:10:09.521Z,66.69
2018-09-09T20:12:36.520Z,67.73
2018-09-09T20:15:03.601Z,68.54
2018-09-09T20:17:30.514Z,69.25
2018-09-09T20:19:57.427Z,69.47
2018-09-09T20:22:24.450Z,68.33
2018-09-09T20:24:52.301Z,67.95
2018-09-09T20:27:19.259Z,68.11
2018-09-09T20:29:46.204Z,68.37
2018-09-09T20:32:13.057Z,68.80
2018-09-09T20:34:39.988Z,70.34
2018-09-09T20:37:06.978Z,70.73
2018-09-09T20:39:33.944Z,70.83
2018-09-09T20:42:00.843Z,69.71
2018-09-09T20:44:27.888Z,72.06
2018-09-09T20:46:54.807Z,72.10
2018-09-09T20:49:21.760Z,73.08
2018-09-09T20:51:48.721Z,73.42
2018-09-09T20:54:15.651Z,72.77
2018-09-09T20:56:42.631Z,74.00
2018-09-09T20:59:09.595Z,73.68
2018-09-09T21:01:36.544Z,72.58
2018-09-09T21:04:03.499Z,73.96
2018-09-09T21:06:30.642Z,74.43
2018-09-09T21:08:57.651Z,74.85
2018-09-09T21:11:24.589Z,73.99
2018-09-09T21:13:51.539Z,73.95
2018-09-09T21:16:19.440Z,74.34
2018-09-09T21:18:46.383Z,75.10
2018-09-09T21:21:13.348Z,74.01
2018-09-09T21:23:40.295Z,73.38
2018-09-09T21:26:07.230Z,72.60
2018-09-09T21:28:34.152Z,73.48
2018-09-09T21:31:01.039Z,76.40
2018-09-09T21:33:28.087Z,72.30
2018-09-09T21:35:55.556Z,74.23
2018-09-09T21:38:22.558Z,75.39
2018-09-09T21:40:49.568Z,75.15
2018-09-09T21:43:16.563Z,76.72
2018-09-09T21:45:43.546Z,76.20
2018-09-09T21:48:10.451Z,75.28
2018-09-09T21:50:37.427Z,72.48
2018-09-09T21:53:04.399Z,73.29
2018-09-09T21:55:31.359Z,73.69
2018-09-09T21:57:58.303Z,73.16
2018-09-09T22:00:25.273Z,74.28
2018-09-09T22:02:52.835Z,75.21
2018-09-09T22:05:19.815Z,76.66
2018-09-09T22:07:46.749Z,77.52
2018-09-09T22:10:13.708Z,78.32
2018-09-09T22:12:40.674Z,77.72
2018-09-09T22:15:07.655Z,77.02
2018-09-09T22:17:34.572Z,77.62
2018-09-09T22:20:02.309Z,76.10
2018-09-09T22:22:29.211Z,76.46
2018-09-09T22:24:56.178Z,76.62
2018-09-09T22:27:23.120Z,76.48
2018-09-09T22:29:50.120Z,79.98
2018-09-09T22:32:17.065Z,80.42
2018-09-09T22:34:43.987Z,80.33
2018-09-09T22:37:10.919Z,79.93
2018-09-09T22:39:38.836Z,77.10
2018-09-09T22:42:05.807Z,78.83
2018-09-09T22:44:32.747Z,78.21
2018-09-09T22:46:59.728Z,78.64
2018-09-09T22:49:26.669Z,76.24
2018-09-09T22:51:53.612Z,75.60
2018-09-09T22:54:20.550Z,75.74
2018-09-09T22:56:47.472Z,76.05
2018-09-09T22:59:14.387Z,77.76
2018-09-09T23:01:41.320Z,78.60
2018-09-09T23:04:08.275Z,77.90
2018-09-09T23:06:35.276Z,74.88
2018-09-09T23:09:02.291Z,73.27
2018-09-09T23:11:29.275Z,76.10
2018-09-09T23:13:56.198Z,76.54
2018-09-09T23:16:23.215Z,76.54
2018-09-09T23:18:50.150Z,77.76
2018-09-09T23:21:17.107Z,77.03
2018-09-09T23:23:44.068Z,77.25
2018-09-09T23:26:11.023Z,79.81
2018-09-09T23:28:37.945Z,80.76
2018-09-09T23:31:04.940Z,81.69
2018-09-09T23:33:31.895Z,81.50
2018-09-09T23:35:58.862Z,81.03
2018-09-09T23:38:25.823Z,79.43
2018-09-09T23:40:53.788Z,78.78
2018-09-09T23:43:20.843Z,79.23
2018-09-09T23:45:47.812Z,78.49
2018-09-09T23:48:14.770Z,76.40
2018-09-09T23:50:41.699Z,77.69
2018-09-09T23:53:08.675Z,79.10
2018-09-09T23:55:35.651Z,78.77
2018-09-09T23:58:02.611Z,80.18
